sensor_id;sensor_type;location;lat;lon;timestamp;temperature;humidity
20735;DHT22;10528;52.124;5.196;2023-03-21T00:01:53;10.80;99.90
20735;DHT22;10528;52.124;5.196;2023-03-21T00:04:22;10.80;99.90
20735;DHT22;10528;52.124;5.196;2023-03-21T00:06:50;10.80;99.90
20735;DHT22;10528;52.124;5.196;2023-03-21T00:09:17;10.90;99.90
20735;DHT22;10528;52.124;5.196;2023-03-21T00:11:45;10.80;99.90
20735;DHT22;10528;52.124;5.196;2023-03-21T00:14:12;10.80;99.90
20735;DHT22;10528;52.124;5.196;2023-03-21T00:16:47;10.80;99.90
20735;DHT22;10528;52.124;5.196;2023-03-21T00:19:19;10.80;99.90
20735;DHT22;10528;52.124;5.196;2023-03-21T00:21:51;10.70;99.90
20735;DHT22;10528;52.124;5.196;2023-03-21T00:24:34;10.80;99.90
20735;DHT22;10528;52.124;5.196;2023-03-21T00:27:01;10.80;99.90
20735;DHT22;10528;52.124;5.196;2023-03-21T00:29:48;10.70;99.90
20735;DHT22;10528;52.124;5.196;2023-03-21T00:32:17;10.80;99.90
20735;DHT22;10528;52.124;5.196;2023-03-21T00:34:47;10.80;99.90
20735;DHT22;10528;52.124;5.196;2023-03-21T00:37:32;10.80;99.90
20735;DHT22;10528;52.124;5.196;2023-03-21T00:39:59;10.80;99.90
20735;DHT22;10528;52.124;5.196;2023-03-21T00:42:26;10.70;99.90
20735;DHT22;10528;52.124;5.196;2023-03-21T00:44:53;10.70;99.90
20735;DHT22;10528;52.124;5.196;2023-03-21T00:47:20;10.70;99.90
20735;DHT22;10528;52.124;5.196;2023-03-21T00:49:49;10.70;99.90
20735;DHT22;10528;52.124;5.196;2023-03-21T00:52:17;10.80;99.90
20735;DHT22;10528;52.124;5.196;2023-03-21T00:55:04;10.70;99.90
20735;DHT22;10528;52.124;5.196;2023-03-21T00:57:33;10.70;99.90
20735;DHT22;10528;52.124;5.196;2023-03-21T01:00:06;10.70;99.90
20735;DHT22;10528;52.124;5.196;2023-03-21T01:02:36;10.70;99.90
20735;DHT22;10528;52.124;5.196;2023-03-21T01:05:04;10.70;99.90
20735;DHT22;10528;52.124;5.196;2023-03-21T01:07:31;10.70;99.90
20735;DHT22;10528;52.124;5.196;2023-03-21T01:09:58;10.80;99.90
20735;DHT22;10528;52.124;5.196;2023-03-21T01:12:25;10.70;99.90
20735;DHT22;10528;52.124;5.196;2023-03-21T01:14:54;10.70;99.90
20735;DHT22;10528;52.124;5.196;2023-03-21T01:17:21;10.70;99.90
20735;DHT22;10528;52.124;5.196;2023-03-21T01:19:48;10.70;99.90
20735;DHT22;10528;52.124;5.196;2023-03-21T01:22:18;10.70;99.90
20735;DHT22;10528;52.124;5.196;2023-03-21T01:24:46;10.70;99.90
20735;DHT22;10528;52.124;5.196;2023-03-21T01:27:22;10.70;99.90
20735;DHT22;10528;52.124;5.196;2023-03-21T01:29:49;10.80;99.90
20735;DHT22;10528;52.124;5.196;2023-03-21T01:32:16;10.70;99.90
20735;DHT22;10528;52.124;5.196;2023-03-21T01:34:43;10.80;99.90
20735;DHT22;10528;52.124;5.196;2023-03-21T01:37:10;10.70;99.90
20735;DHT22;10528;52.124;5.196;2023-03-21T01:39:43;10.70;99.90
20735;DHT22;10528;52.124;5.196;2023-03-21T01:42:13;10.70;99.90
20735;DHT22;10528;52.124;5.196;2023-03-21T01:44:57;10.70;99.90
20735;DHT22;10528;52.124;5.196;2023-03-21T01:47:35;10.70;99.90
20735;DHT22;10528;52.124;5.196;2023-03-21T01:50:18;10.70;99.90
20735;DHT22;10528;52.124;5.196;2023-03-21T01:52:59;10.70;99.90
20735;DHT22;10528;52.124;5.196;2023-03-21T01:55:30;10.70;99.90
20735;DHT22;10528;52.124;5.196;2023-03-21T01:58:10;10.70;99.90
20735;DHT22;10528;52.124;5.196;2023-03-21T02:00:46;10.70;99.90
20735;DHT22;10528;52.124;5.196;2023-03-21T02:03:26;10.70;99.90
20735;DHT22;10528;52.124;5.196;2023-03-21T02:06:27;10.70;99.90
20735;DHT22;10528;52.124;5.196;2023-03-21T02:09:09;10.60;99.90
20735;DHT22;10528;52.124;5.196;2023-03-21T02:11:40;10.60;99.90
20735;DHT22;10528;52.124;5.196;2023-03-21T02:14:15;10.60;99.90
20735;DHT22;10528;52.124;5.196;2023-03-21T02:17:18;10.60;99.90
20735;DHT22;10528;52.124;5.196;2023-03-21T02:22:51;10.60;99.90
20735;DHT22;10528;52.124;5.196;2023-03-21T02:29:05;10.60;99.90
20735;DHT22;10528;52.124;5.196;2023-03-21T02:35:27;10.60;99.90
20735;DHT22;10528;52.124;5.196;2023-03-21T02:38:16;10.60;99.90
20735;DHT22;10528;52.124;5.196;2023-03-21T02:41:03;10.60;99.90
20735;DHT22;10528;52.124;5.196;2023-03-21T02:43:58;10.70;99.90
20735;DHT22;10528;52.124;5.196;2023-03-21T02:46:58;10.60;99.90
20735;DHT22;10528;52.124;5.196;2023-03-21T02:49:45;10.60;99.90
20735;DHT22;10528;52.124;5.196;2023-03-21T02:52:20;10.60;99.90
20735;DHT22;10528;52.124;5.196;2023-03-21T02:55:16;10.60;99.90
20735;DHT22;10528;52.124;5.196;2023-03-21T02:57:54;10.60;99.90
20735;DHT22;10528;52.124;5.196;2023-03-21T03:00:28;10.60;99.90
20735;DHT22;10528;52.124;5.196;2023-03-21T03:02:59;10.50;99.90
20735;DHT22;10528;52.124;5.196;2023-03-21T03:05:44;10.60;99.90
20735;DHT22;10528;52.124;5.196;2023-03-21T03:11:27;10.60;99.90
20735;DHT22;10528;52.124;5.196;2023-03-21T03:17:49;10.50;99.90
20735;DHT22;10528;52.124;5.196;2023-03-21T03:20:29;10.60;99.90
20735;DHT22;10528;52.124;5.196;2023-03-21T03:23:34;10.50;99.90
20735;DHT22;10528;52.124;5.196;2023-03-21T03:26:16;10.60;99.90
20735;DHT22;10528;52.124;5.196;2023-03-21T03:28:50;10.60;99.90
20735;DHT22;10528;52.124;5.196;2023-03-21T03:31:30;10.50;99.90
20735;DHT22;10528;52.124;5.196;2023-03-21T03:34:06;10.50;99.90
20735;DHT22;10528;52.124;5.196;2023-03-21T03:36:42;10.50;99.90
20735;DHT22;10528;52.124;5.196;2023-03-21T03:39:15;10.50;99.90
20735;DHT22;10528;52.124;5.196;2023-03-21T03:42:01;10.50;99.90
20735;DHT22;10528;52.124;5.196;2023-03-21T03:44:51;10.50;99.90
20735;DHT22;10528;52.124;5.196;2023-03-21T03:50:53;10.50;99.90
20735;DHT22;10528;52.124;5.196;2023-03-21T03:53:52;10.40;99.90
20735;DHT22;10528;52.124;5.196;2023-03-21T03:56:27;10.50;99.90
20735;DHT22;10528;52.124;5.196;2023-03-21T03:58:56;10.40;99.90
20735;DHT22;10528;52.124;5.196;2023-03-21T04:01:38;10.50;99.90
20735;DHT22;10528;52.124;5.196;2023-03-21T04:04:06;10.40;99.90
20735;DHT22;10528;52.124;5.196;2023-03-21T04:06:40;10.40;99.90
20735;DHT22;10528;52.124;5.196;2023-03-21T04:09:07;10.50;99.90
20735;DHT22;10528;52.124;5.196;2023-03-21T04:11:47;10.40;99.90
20735;DHT22;10528;52.124;5.196;2023-03-21T04:14:14;10.40;99.90
20735;DHT22;10528;52.124;5.196;2023-03-21T04:16:42;10.50;99.90
20735;DHT22;10528;52.124;5.196;2023-03-21T04:19:09;10.40;99.90
20735;DHT22;10528;52.124;5.196;2023-03-21T04:21:36;10.40;99.90
20735;DHT22;10528;52.124;5.196;2023-03-21T04:24:03;10.40;99.90
20735;DHT22;10528;52.124;5.196;2023-03-21T04:26:33;10.40;99.90
20735;DHT22;10528;52.124;5.196;2023-03-21T04:29:32;10.50;99.90
20735;DHT22;10528;52.124;5.196;2023-03-21T04:31:59;10.50;99.90
20735;DHT22;10528;52.124;5.196;2023-03-21T04:34:27;10.40;99.90
20735;DHT22;10528;52.124;5.196;2023-03-21T04:36:57;10.50;99.90
20735;DHT22;10528;52.124;5.196;2023-03-21T04:39:24;10.50;99.90
20735;DHT22;10528;52.124;5.196;2023-03-21T04:41:51;10.50;99.90
20735;DHT22;10528;52.124;5.196;2023-03-21T04:44:18;10.50;99.90
20735;DHT22;10528;52.124;5.196;2023-03-21T04:46:45;10.50;99.90
20735;DHT22;10528;52.124;5.196;2023-03-21T04:49:13;10.50;99.90
20735;DHT22;10528;52.124;5.196;2023-03-21T04:51:42;10.50;99.90
20735;DHT22;10528;52.124;5.196;2023-03-21T04:54:12;10.50;99.90
20735;DHT22;10528;52.124;5.196;2023-03-21T04:56:40;10.40;99.90
20735;DHT22;10528;52.124;5.196;2023-03-21T04:59:11;10.40;99.90
20735;DHT22;10528;52.124;5.196;2023-03-21T05:01:40;10.40;99.90
20735;DHT22;10528;52.124;5.196;2023-03-21T05:04:10;10.40;99.90
20735;DHT22;10528;52.124;5.196;2023-03-21T05:06:39;10.40;99.90
20735;DHT22;10528;52.124;5.196;2023-03-21T05:09:08;10.40;99.90
20735;DHT22;10528;52.124;5.196;2023-03-21T05:11:37;10.40;99.90
20735;DHT22;10528;52.124;5.196;2023-03-21T05:14:13;10.30;99.90
20735;DHT22;10528;52.124;5.196;2023-03-21T05:16:43;10.30;99.90
20735;DHT22;10528;52.124;5.196;2023-03-21T05:19:15;10.30;99.90
20735;DHT22;10528;52.124;5.196;2023-03-21T05:21:43;10.40;99.90
20735;DHT22;10528;52.124;5.196;2023-03-21T05:24:17;10.40;99.90
20735;DHT22;10528;52.124;5.196;2023-03-21T05:26:47;10.40;99.90
20735;DHT22;10528;52.124;5.196;2023-03-21T05:29:21;10.40;99.90
20735;DHT22;10528;52.124;5.196;2023-03-21T05:32:07;10.40;99.90
20735;DHT22;10528;52.124;5.196;2023-03-21T05:34:34;10.30;99.90
20735;DHT22;10528;52.124;5.196;2023-03-21T05:37:01;10.30;99.90
20735;DHT22;10528;52.124;5.196;2023-03-21T05:39:40;10.30;99.90
20735;DHT22;10528;52.124;5.196;2023-03-21T05:42:13;10.30;99.90
20735;DHT22;10528;52.124;5.196;2023-03-21T05:44:40;10.30;99.90
20735;DHT22;10528;52.124;5.196;2023-03-21T05:47:08;10.30;99.90
20735;DHT22;10528;52.124;5.196;2023-03-21T05:49:40;10.30;99.90
20735;DHT22;10528;52.124;5.196;2023-03-21T05:52:07;10.30;99.90
20735;DHT22;10528;52.124;5.196;2023-03-21T05:54:35;10.30;99.90
20735;DHT22;10528;52.124;5.196;2023-03-21T05:57:03;10.30;99.90
20735;DHT22;10528;52.124;5.196;2023-03-21T05:59:52;10.30;99.90
20735;DHT22;10528;52.124;5.196;2023-03-21T06:02:20;10.30;99.90
20735;DHT22;10528;52.124;5.196;2023-03-21T06:04:47;10.30;99.90
20735;DHT22;10528;52.124;5.196;2023-03-21T06:07:16;10.30;99.90
20735;DHT22;10528;52.124;5.196;2023-03-21T06:09:43;10.30;99.90
20735;DHT22;10528;52.124;5.196;2023-03-21T06:12:10;10.30;99.90
20735;DHT22;10528;52.124;5.196;2023-03-21T06:14:43;10.30;99.90
20735;DHT22;10528;52.124;5.196;2023-03-21T06:17:21;10.30;99.90
20735;DHT22;10528;52.124;5.196;2023-03-21T06:19:54;10.30;99.90
20735;DHT22;10528;52.124;5.196;2023-03-21T06:22:31;10.30;99.90
20735;DHT22;10528;52.124;5.196;2023-03-21T06:25:00;10.30;99.90
20735;DHT22;10528;52.124;5.196;2023-03-21T06:27:27;10.30;99.90
20735;DHT22;10528;52.124;5.196;2023-03-21T06:29:55;10.30;99.90
20735;DHT22;10528;52.124;5.196;2023-03-21T06:32:24;10.30;99.90
20735;DHT22;10528;52.124;5.196;2023-03-21T06:34:56;10.30;99.90
20735;DHT22;10528;52.124;5.196;2023-03-21T06:37:23;10.30;99.90
20735;DHT22;10528;52.124;5.196;2023-03-21T06:39:52;10.30;99.90
20735;DHT22;10528;52.124;5.196;2023-03-21T06:42:21;10.40;99.90
20735;DHT22;10528;52.124;5.196;2023-03-21T06:44:48;10.40;99.90
20735;DHT22;10528;52.124;5.196;2023-03-21T06:47:15;10.40;99.90
20735;DHT22;10528;52.124;5.196;2023-03-21T06:49:44;10.40;99.90
20735;DHT22;10528;52.124;5.196;2023-03-21T06:52:12;10.40;99.90
20735;DHT22;10528;52.124;5.196;2023-03-21T06:54:39;10.40;99.90
20735;DHT22;10528;52.124;5.196;2023-03-21T06:57:10;10.40;99.90
20735;DHT22;10528;52.124;5.196;2023-03-21T06:59:39;10.50;99.90
20735;DHT22;10528;52.124;5.196;2023-03-21T07:02:19;10.50;99.90
20735;DHT22;10528;52.124;5.196;2023-03-21T07:04:56;10.50;99.90
20735;DHT22;10528;52.124;5.196;2023-03-21T07:07:26;10.50;99.90
20735;DHT22;10528;52.124;5.196;2023-03-21T07:09:55;10.50;99.90
20735;DHT22;10528;52.124;5.196;2023-03-21T07:12:23;10.60;99.90
20735;DHT22;10528;52.124;5.196;2023-03-21T07:15:08;10.60;99.90
20735;DHT22;10528;52.124;5.196;2023-03-21T07:17:37;10.60;99.90
20735;DHT22;10528;52.124;5.196;2023-03-21T07:20:04;10.60;99.90
20735;DHT22;10528;52.124;5.196;2023-03-21T07:22:34;10.60;99.90
20735;DHT22;10528;52.124;5.196;2023-03-21T07:25:01;10.60;99.90
20735;DHT22;10528;52.124;5.196;2023-03-21T07:27:37;10.60;99.90
20735;DHT22;10528;52.124;5.196;2023-03-21T07:30:09;10.60;99.90
20735;DHT22;10528;52.124;5.196;2023-03-21T07:32:36;10.60;99.90
20735;DHT22;10528;52.124;5.196;2023-03-21T07:35:11;10.70;99.90
20735;DHT22;10528;52.124;5.196;2023-03-21T07:37:40;10.70;99.90
20735;DHT22;10528;52.124;5.196;2023-03-21T07:40:09;10.70;99.90
20735;DHT22;10528;52.124;5.196;2023-03-21T07:42:39;10.80;99.90
20735;DHT22;10528;52.124;5.196;2023-03-21T07:45:09;10.70;99.90
20735;DHT22;10528;52.124;5.196;2023-03-21T07:47:36;10.70;99.90
20735;DHT22;10528;52.124;5.196;2023-03-21T07:50:04;10.70;99.90
20735;DHT22;10528;52.124;5.196;2023-03-21T07:52:32;10.80;99.90
20735;DHT22;10528;52.124;5.196;2023-03-21T07:54:59;10.80;99.90
20735;DHT22;10528;52.124;5.196;2023-03-21T07:57:26;10.80;99.90
20735;DHT22;10528;52.124;5.196;2023-03-21T07:59:53;10.80;99.90
20735;DHT22;10528;52.124;5.196;2023-03-21T08:02:19;10.80;99.90
20735;DHT22;10528;52.124;5.196;2023-03-21T08:04:47;10.80;99.90
20735;DHT22;10528;52.124;5.196;2023-03-21T08:07:13;10.80;99.90
20735;DHT22;10528;52.124;5.196;2023-03-21T08:09:42;10.80;99.90
20735;DHT22;10528;52.124;5.196;2023-03-21T08:12:09;10.80;99.90
20735;DHT22;10528;52.124;5.196;2023-03-21T08:14:37;10.90;99.90
20735;DHT22;10528;52.124;5.196;2023-03-21T08:17:05;10.90;99.90
20735;DHT22;10528;52.124;5.196;2023-03-21T08:19:32;10.90;99.90
20735;DHT22;10528;52.124;5.196;2023-03-21T08:21:59;10.90;99.90
20735;DHT22;10528;52.124;5.196;2023-03-21T08:24:27;11.00;99.90
20735;DHT22;10528;52.124;5.196;2023-03-21T08:26:55;11.00;99.90
20735;DHT22;10528;52.124;5.196;2023-03-21T08:29:22;11.00;99.90
20735;DHT22;10528;52.124;5.196;2023-03-21T08:31:50;11.10;99.90
20735;DHT22;10528;52.124;5.196;2023-03-21T08:34:17;11.10;99.90
20735;DHT22;10528;52.124;5.196;2023-03-21T08:36:45;11.10;99.90
20735;DHT22;10528;52.124;5.196;2023-03-21T08:39:12;11.10;99.90
20735;DHT22;10528;52.124;5.196;2023-03-21T08:41:39;11.10;99.90
20735;DHT22;10528;52.124;5.196;2023-03-21T08:44:06;11.10;99.90
20735;DHT22;10528;52.124;5.196;2023-03-21T08:46:33;11.10;99.90
20735;DHT22;10528;52.124;5.196;2023-03-21T08:49:00;11.10;99.90
20735;DHT22;10528;52.124;5.196;2023-03-21T08:51:27;11.20;99.90
20735;DHT22;10528;52.124;5.196;2023-03-21T08:53:54;11.20;99.90
20735;DHT22;10528;52.124;5.196;2023-03-21T08:56:21;11.30;99.90
20735;DHT22;10528;52.124;5.196;2023-03-21T08:58:48;11.30;99.90
20735;DHT22;10528;52.124;5.196;2023-03-21T09:01:15;11.30;99.90
20735;DHT22;10528;52.124;5.196;2023-03-21T09:03:42;11.20;99.90
20735;DHT22;10528;52.124;5.196;2023-03-21T09:06:10;11.20;99.90
20735;DHT22;10528;52.124;5.196;2023-03-21T09:08:40;11.20;99.90
20735;DHT22;10528;52.124;5.196;2023-03-21T09:11:08;11.20;99.90
20735;DHT22;10528;52.124;5.196;2023-03-21T09:13:36;11.20;99.90
20735;DHT22;10528;52.124;5.196;2023-03-21T09:16:02;11.20;99.90
20735;DHT22;10528;52.124;5.196;2023-03-21T09:18:30;11.20;99.90
20735;DHT22;10528;52.124;5.196;2023-03-21T09:21:17;11.20;99.90
20735;DHT22;10528;52.124;5.196;2023-03-21T09:23:45;11.20;99.90
20735;DHT22;10528;52.124;5.196;2023-03-21T09:26:14;11.30;99.90
20735;DHT22;10528;52.124;5.196;2023-03-21T09:28:41;11.30;99.90
20735;DHT22;10528;52.124;5.196;2023-03-21T09:31:09;11.30;99.90
20735;DHT22;10528;52.124;5.196;2023-03-21T09:33:38;11.40;99.90
20735;DHT22;10528;52.124;5.196;2023-03-21T09:36:08;11.50;99.90
20735;DHT22;10528;52.124;5.196;2023-03-21T09:38:37;11.50;99.90
20735;DHT22;10528;52.124;5.196;2023-03-21T09:47:25;11.70;99.90
20735;DHT22;10528;52.124;5.196;2023-03-21T09:50:05;11.70;99.90
20735;DHT22;10528;52.124;5.196;2023-03-21T09:52:46;11.70;99.90
20735;DHT22;10528;52.124;5.196;2023-03-21T09:55:29;11.70;99.90
20735;DHT22;10528;52.124;5.196;2023-03-21T09:58:22;11.70;99.90
20735;DHT22;10528;52.124;5.196;2023-03-21T10:01:16;11.80;99.90
20735;DHT22;10528;52.124;5.196;2023-03-21T10:03:56;11.80;99.90
20735;DHT22;10528;52.124;5.196;2023-03-21T10:06:29;11.70;99.90
20735;DHT22;10528;52.124;5.196;2023-03-21T10:09:16;11.70;99.90
20735;DHT22;10528;52.124;5.196;2023-03-21T10:11:55;11.80;99.90
20735;DHT22;10528;52.124;5.196;2023-03-21T10:15:09;11.90;99.90
20735;DHT22;10528;52.124;5.196;2023-03-21T10:17:42;12.00;99.90
20735;DHT22;10528;52.124;5.196;2023-03-21T10:20:21;12.10;99.90
20735;DHT22;10528;52.124;5.196;2023-03-21T10:22:54;12.20;99.90
20735;DHT22;10528;52.124;5.196;2023-03-21T10:25:30;12.20;99.90
20735;DHT22;10528;52.124;5.196;2023-03-21T10:28:05;12.20;99.90
20735;DHT22;10528;52.124;5.196;2023-03-21T10:33:33;12.20;99.90
20735;DHT22;10528;52.124;5.196;2023-03-21T10:36:09;12.20;99.90
20735;DHT22;10528;52.124;5.196;2023-03-21T10:38:44;12.30;99.90
20735;DHT22;10528;52.124;5.196;2023-03-21T10:41:14;12.40;99.90
20735;DHT22;10528;52.124;5.196;2023-03-21T10:43:42;12.50;99.90
20735;DHT22;10528;52.124;5.196;2023-03-21T10:46:15;12.50;99.90
20735;DHT22;10528;52.124;5.196;2023-03-21T10:48:51;12.50;99.90
20735;DHT22;10528;52.124;5.196;2023-03-21T10:51:21;12.60;99.90
20735;DHT22;10528;52.124;5.196;2023-03-21T10:54:00;12.60;99.90
20735;DHT22;10528;52.124;5.196;2023-03-21T10:56:37;12.60;99.90
20735;DHT22;10528;52.124;5.196;2023-03-21T10:59:17;12.80;99.90
20735;DHT22;10528;52.124;5.196;2023-03-21T11:01:49;12.80;99.90
20735;DHT22;10528;52.124;5.196;2023-03-21T11:04:24;13.00;99.90
20735;DHT22;10528;52.124;5.196;2023-03-21T11:07:00;13.00;99.90
20735;DHT22;10528;52.124;5.196;2023-03-21T11:09:47;13.00;99.90
20735;DHT22;10528;52.124;5.196;2023-03-21T11:12:31;12.90;99.90
20735;DHT22;10528;52.124;5.196;2023-03-21T11:18:00;13.00;99.90
20735;DHT22;10528;52.124;5.196;2023-03-21T11:21:00;13.00;99.90
20735;DHT22;10528;52.124;5.196;2023-03-21T11:23:31;13.00;99.90
20735;DHT22;10528;52.124;5.196;2023-03-21T11:26:01;13.00;99.90
20735;DHT22;10528;52.124;5.196;2023-03-21T11:28:38;13.10;99.90
20735;DHT22;10528;52.124;5.196;2023-03-21T11:31:07;13.20;99.90
20735;DHT22;10528;52.124;5.196;2023-03-21T11:33:41;13.20;99.90
20735;DHT22;10528;52.124;5.196;2023-03-21T11:38:49;13.30;99.90
20735;DHT22;10528;52.124;5.196;2023-03-21T11:41:26;13.40;99.90
20735;DHT22;10528;52.124;5.196;2023-03-21T11:43:56;13.40;99.90
20735;DHT22;10528;52.124;5.196;2023-03-21T11:46:29;13.30;99.90
20735;DHT22;10528;52.124;5.196;2023-03-21T11:48:59;13.50;99.90
20735;DHT22;10528;52.124;5.196;2023-03-21T11:54:11;13.60;99.90
20735;DHT22;10528;52.124;5.196;2023-03-21T11:56:50;13.50;99.90
20735;DHT22;10528;52.124;5.196;2023-03-21T11:59:48;13.40;99.90
20735;DHT22;10528;52.124;5.196;2023-03-21T12:05:37;13.40;99.90
20735;DHT22;10528;52.124;5.196;2023-03-21T12:08:39;13.40;99.90
20735;DHT22;10528;52.124;5.196;2023-03-21T12:11:28;13.50;99.90
20735;DHT22;10528;52.124;5.196;2023-03-21T12:14:36;13.60;99.90
20735;DHT22;10528;52.124;5.196;2023-03-21T12:22:58;13.20;99.90
20735;DHT22;10528;52.124;5.196;2023-03-21T12:25:37;13.10;99.90
20735;DHT22;10528;52.124;5.196;2023-03-21T12:28:27;13.30;99.90
20735;DHT22;10528;52.124;5.196;2023-03-21T12:31:43;13.40;99.90
20735;DHT22;10528;52.124;5.196;2023-03-21T12:34:55;13.60;99.90
20735;DHT22;10528;52.124;5.196;2023-03-21T12:40:34;13.80;99.90
20735;DHT22;10528;52.124;5.196;2023-03-21T12:51:53;14.30;99.90
20735;DHT22;10528;52.124;5.196;2023-03-21T12:54:37;14.40;99.90
20735;DHT22;10528;52.124;5.196;2023-03-21T13:02:46;14.40;99.90
20735;DHT22;10528;52.124;5.196;2023-03-21T13:05:45;14.60;99.90
20735;DHT22;10528;52.124;5.196;2023-03-21T13:08:26;14.40;99.90
20735;DHT22;10528;52.124;5.196;2023-03-21T13:11:04;14.30;99.90
20735;DHT22;10528;52.124;5.196;2023-03-21T13:16:20;14.40;99.90
20735;DHT22;10528;52.124;5.196;2023-03-21T13:19:15;14.40;99.90
20735;DHT22;10528;52.124;5.196;2023-03-21T13:25:06;14.30;99.90
20735;DHT22;10528;52.124;5.196;2023-03-21T13:27:50;14.30;99.90
20735;DHT22;10528;52.124;5.196;2023-03-21T13:30:27;14.20;99.90
20735;DHT22;10528;52.124;5.196;2023-03-21T13:33:22;14.20;99.90
20735;DHT22;10528;52.124;5.196;2023-03-21T13:36:07;14.10;99.90
20735;DHT22;10528;52.124;5.196;2023-03-21T13:38:35;14.10;99.90
20735;DHT22;10528;52.124;5.196;2023-03-21T13:41:15;13.90;99.90
20735;DHT22;10528;52.124;5.196;2023-03-21T13:56:54;13.90;99.90
20735;DHT22;10528;52.124;5.196;2023-03-21T13:59:41;13.90;99.90
20735;DHT22;10528;52.124;5.196;2023-03-21T14:02:22;14.00;99.90
20735;DHT22;10528;52.124;5.196;2023-03-21T14:05:01;14.10;99.90
20735;DHT22;10528;52.124;5.196;2023-03-21T14:07:39;14.10;99.90
20735;DHT22;10528;52.124;5.196;2023-03-21T14:10:19;14.20;99.90
20735;DHT22;10528;52.124;5.196;2023-03-21T14:12:49;14.10;99.90
20735;DHT22;10528;52.124;5.196;2023-03-21T14:15:28;14.00;99.90
20735;DHT22;10528;52.124;5.196;2023-03-21T14:18:19;14.00;99.90
20735;DHT22;10528;52.124;5.196;2023-03-21T14:21:19;14.00;99.90
20735;DHT22;10528;52.124;5.196;2023-03-21T14:24:10;14.10;99.90
20735;DHT22;10528;52.124;5.196;2023-03-21T14:26:45;14.00;99.90
20735;DHT22;10528;52.124;5.196;2023-03-21T14:29:32;14.00;99.90
20735;DHT22;10528;52.124;5.196;2023-03-21T14:32:01;14.00;99.90
20735;DHT22;10528;52.124;5.196;2023-03-21T14:34:31;14.00;99.90
20735;DHT22;10528;52.124;5.196;2023-03-21T14:37:00;14.00;99.90
20735;DHT22;10528;52.124;5.196;2023-03-21T14:39:31;14.00;99.90
20735;DHT22;10528;52.124;5.196;2023-03-21T14:42:06;14.00;99.90
20735;DHT22;10528;52.124;5.196;2023-03-21T14:44:48;13.90;99.90
20735;DHT22;10528;52.124;5.196;2023-03-21T14:47:24;14.00;99.90
20735;DHT22;10528;52.124;5.196;2023-03-21T14:49:54;14.00;99.90
20735;DHT22;10528;52.124;5.196;2023-03-21T14:52:33;13.90;99.90
20735;DHT22;10528;52.124;5.196;2023-03-21T14:55:02;13.90;99.90
20735;DHT22;10528;52.124;5.196;2023-03-21T14:57:37;13.90;99.90
20735;DHT22;10528;52.124;5.196;2023-03-21T15:00:07;13.90;99.90
20735;DHT22;10528;52.124;5.196;2023-03-21T15:02:39;14.00;99.90
20735;DHT22;10528;52.124;5.196;2023-03-21T15:05:14;13.90;99.90
20735;DHT22;10528;52.124;5.196;2023-03-21T15:08:13;13.80;99.90
20735;DHT22;10528;52.124;5.196;2023-03-21T15:11:11;13.80;99.90
20735;DHT22;10528;52.124;5.196;2023-03-21T15:13:48;13.80;99.90
20735;DHT22;10528;52.124;5.196;2023-03-21T15:16:18;13.80;99.90
20735;DHT22;10528;52.124;5.196;2023-03-21T15:18:47;13.70;99.90
20735;DHT22;10528;52.124;5.196;2023-03-21T15:21:22;13.80;99.90
20735;DHT22;10528;52.124;5.196;2023-03-21T15:24:09;13.80;99.90
20735;DHT22;10528;52.124;5.196;2023-03-21T15:26:44;13.70;99.90
20735;DHT22;10528;52.124;5.196;2023-03-21T15:29:14;13.70;99.90
20735;DHT22;10528;52.124;5.196;2023-03-21T15:31:42;13.70;99.90
20735;DHT22;10528;52.124;5.196;2023-03-21T15:34:22;13.70;99.90
20735;DHT22;10528;52.124;5.196;2023-03-21T15:36:59;13.70;99.90
20735;DHT22;10528;52.124;5.196;2023-03-21T15:39:31;13.80;99.90
20735;DHT22;10528;52.124;5.196;2023-03-21T15:42:05;13.80;99.90
20735;DHT22;10528;52.124;5.196;2023-03-21T15:44:52;13.70;99.90
20735;DHT22;10528;52.124;5.196;2023-03-21T15:47:41;13.60;99.90
20735;DHT22;10528;52.124;5.196;2023-03-21T15:52:50;13.60;99.90
20735;DHT22;10528;52.124;5.196;2023-03-21T15:55:27;13.60;99.90
20735;DHT22;10528;52.124;5.196;2023-03-21T15:58:10;13.50;99.90
20735;DHT22;10528;52.124;5.196;2023-03-21T16:00:46;13.50;99.90
20735;DHT22;10528;52.124;5.196;2023-03-21T16:03:27;13.50;99.90
20735;DHT22;10528;52.124;5.196;2023-03-21T16:06:16;13.40;99.90
20735;DHT22;10528;52.124;5.196;2023-03-21T16:09:02;13.40;99.90
20735;DHT22;10528;52.124;5.196;2023-03-21T16:11:39;13.40;99.90
20735;DHT22;10528;52.124;5.196;2023-03-21T16:14:08;13.30;99.90
20735;DHT22;10528;52.124;5.196;2023-03-21T16:16:36;13.30;99.90
20735;DHT22;10528;52.124;5.196;2023-03-21T16:19:04;13.20;99.90
20735;DHT22;10528;52.124;5.196;2023-03-21T16:21:33;13.20;99.90
20735;DHT22;10528;52.124;5.196;2023-03-21T16:24:04;13.20;99.90
20735;DHT22;10528;52.124;5.196;2023-03-21T16:26:36;13.30;99.90
20735;DHT22;10528;52.124;5.196;2023-03-21T16:29:05;13.30;99.90
20735;DHT22;10528;52.124;5.196;2023-03-21T16:31:35;13.10;99.90
20735;DHT22;10528;52.124;5.196;2023-03-21T16:34:02;13.00;99.90
20735;DHT22;10528;52.124;5.196;2023-03-21T16:36:38;13.10;99.90
20735;DHT22;10528;52.124;5.196;2023-03-21T16:39:24;13.10;99.90
20735;DHT22;10528;52.124;5.196;2023-03-21T16:41:52;13.20;99.90
20735;DHT22;10528;52.124;5.196;2023-03-21T16:44:19;13.10;99.90
20735;DHT22;10528;52.124;5.196;2023-03-21T16:46:47;13.10;99.90
20735;DHT22;10528;52.124;5.196;2023-03-21T16:49:21;13.20;99.90
20735;DHT22;10528;52.124;5.196;2023-03-21T16:51:50;13.10;99.90
20735;DHT22;10528;52.124;5.196;2023-03-21T16:54:18;13.10;99.90
20735;DHT22;10528;52.124;5.196;2023-03-21T16:56:51;13.20;99.90
20735;DHT22;10528;52.124;5.196;2023-03-21T16:59:20;13.20;99.90
20735;DHT22;10528;52.124;5.196;2023-03-21T17:01:47;13.20;99.90
20735;DHT22;10528;52.124;5.196;2023-03-21T17:04:17;13.20;99.90
20735;DHT22;10528;52.124;5.196;2023-03-21T17:06:49;13.10;99.90
20735;DHT22;10528;52.124;5.196;2023-03-21T17:09:20;13.10;99.90
20735;DHT22;10528;52.124;5.196;2023-03-21T17:11:49;13.00;99.90
20735;DHT22;10528;52.124;5.196;2023-03-21T17:14:16;13.00;99.90
20735;DHT22;10528;52.124;5.196;2023-03-21T17:16:44;12.90;99.90
20735;DHT22;10528;52.124;5.196;2023-03-21T17:19:20;12.80;99.90
20735;DHT22;10528;52.124;5.196;2023-03-21T17:21:51;12.70;99.90
20735;DHT22;10528;52.124;5.196;2023-03-21T17:24:18;12.70;99.90
20735;DHT22;10528;52.124;5.196;2023-03-21T17:26:45;12.70;99.90
20735;DHT22;10528;52.124;5.196;2023-03-21T17:29:13;12.70;99.90
20735;DHT22;10528;52.124;5.196;2023-03-21T17:31:40;12.70;99.90
20735;DHT22;10528;52.124;5.196;2023-03-21T17:34:08;12.60;99.90
20735;DHT22;10528;52.124;5.196;2023-03-21T17:36:39;12.50;99.90
20735;DHT22;10528;52.124;5.196;2023-03-21T17:39:13;12.60;99.90
20735;DHT22;10528;52.124;5.196;2023-03-21T17:41:45;12.60;99.90